Time,TemperatureF,DewpointF,PressureIn,WindDirection,WindDirectionDegrees,WindSpeedMPH,WindSpeedGustMPH,Humidity,HourlyPrecipIn,Conditions,Clouds,dailyrainin,SolarRadiationWatts/m^2,SoftwareType,DateUTC
2013-02-16 00:00:00,42.4,32.6,29.99,NNW,338,3.0,4.0,68,0.00,,,0.01,0.00,VWS V14.01,2013-02-16 05:00:00,
2013-02-16 00:05:00,42.4,32.6,29.99,NNE,13,0.0,0.0,68,0.00,,,0.00,0.00,VWS V14.01,2013-02-16 05:05:00,
2013-02-16 00:10:00,42.4,32.6,29.99,NNE,13,0.0,1.0,68,0.00,,,0.00,0.00,VWS V14.01,2013-02-16 05:10:00,
2013-02-16 00:15:00,42.4,32.6,29.99,NNE,13,2.0,2.0,68,0.00,,,0.00,0.00,VWS V14.01,2013-02-16 05:15:00,
2013-02-16 00:20:00,42.4,32.6,29.99,NNE,13,1.0,2.0,68,0.00,,,0.00,0.00,VWS V14.01,2013-02-16 05:20:00,
2013-02-16 00:23:00,42.4,32.6,29.99,NNW,332,2.0,3.0,68,0.00,,,0.00,0.00,VWS V14.01,2013-02-16 05:23:00,
2013-02-16 00:28:00,42.4,32.6,29.99,NNE,16,2.0,2.0,68,0.00,,,0.00,0.00,VWS V14.01,2013-02-16 05:28:00,
2013-02-16 00:33:00,42.4,32.6,29.99,North,360,1.0,2.0,68,0.00,,,0.00,0.00,VWS V14.01,2013-02-16 05:33:00,
2013-02-16 00:38:00,42.4,32.6,29.99,NNE,26,2.0,2.0,68,0.00,,,0.00,0.00,VWS V14.01,2013-02-16 05:38:00,
2013-02-16 00:43:00,42.3,32.9,29.99,North,355,2.0,2.0,69,0.00,,,0.00,0.00,VWS V14.01,2013-02-16 05:43:00,
2013-02-16 00:48:00,42.3,32.9,29.99,North,351,1.0,2.0,69,0.00,,,0.00,0.00,VWS V14.01,2013-02-16 05:48:00,
2013-02-16 00:53:00,42.3,32.9,29.99,NNE,21,1.0,1.0,69,0.00,,,0.00,0.00,VWS V14.01,2013-02-16 05:53:00,
2013-02-16 00:58:00,42.2,33.1,29.99,NNE,20,0.0,0.0,70,0.00,,,0.00,0.00,VWS V14.01,2013-02-16 05:58:00,
2013-02-16 01:03:00,42.2,33.1,29.99,NNE,20,2.0,2.0,70,0.00,,,0.00,0.00,VWS V14.01,2013-02-16 06:03:00,
2013-02-16 01:08:00,42.1,33.0,29.99,NNE,20,0.0,0.0,70,0.00,,,0.00,0.00,VWS V14.01,2013-02-16 06:08:00,
2013-02-16 01:13:00,42.0,32.9,29.99,NNE,20,1.0,1.0,70,0.00,,,0.00,0.00,VWS V14.01,2013-02-16 06:13:00,
2013-02-16 01:18:00,42.0,32.9,29.98,NNE,20,0.0,0.0,70,0.00,,,0.00,0.00,VWS V14.01,2013-02-16 06:18:00,
2013-02-16 01:23:00,41.9,33.2,29.98,NNE,20,0.0,0.0,71,0.00,,,0.00,0.00,VWS V14.01,2013-02-16 06:23:00,
2013-02-16 01:28:00,41.9,33.2,29.98,NNE,20,0.0,0.0,71,0.00,,,0.00,0.00,VWS V14.01,2013-02-16 06:28:00,
2013-02-16 01:33:00,41.9,33.2,29.98,NNE,20,0.0,0.0,71,0.00,,,0.00,0.00,VWS V14.01,2013-02-16 06:33:00,
2013-02-16 01:38:00,41.8,33.5,29.98,NNE,20,0.0,0.0,72,0.00,,,0.00,0.00,VWS V14.01,2013-02-16 06:38:00,
2013-02-16 01:43:00,41.8,33.5,29.98,NNE,20,0.0,1.0,72,0.00,,,0.00,0.00,VWS V14.01,2013-02-16 06:43:00,
2013-02-16 01:48:00,41.7,33.3,29.98,NNE,13,0.0,0.0,72,0.00,,,0.00,0.00,VWS V14.01,2013-02-16 06:48:00,
2013-02-16 01:52:00,41.6,32.9,29.98,NNE,13,2.0,2.0,71,0.00,,,0.00,0.00,VWS V14.01,2013-02-16 06:52:00,
2013-02-16 01:58:00,41.5,32.5,29.98,NNE,31,1.0,3.0,70,0.00,,,0.00,0.00,VWS V14.01,2013-02-16 06:58:00,
2013-02-16 02:03:00,41.4,32.4,29.98,NNW,335,3.0,3.0,70,0.00,,,0.00,0.00,VWS V14.01,2013-02-16 07:03:00,
2013-02-16 02:08:00,41.3,31.9,29.98,NNE,22,1.0,1.0,69,0.00,,,0.00,0.00,VWS V14.01,2013-02-16 07:08:00,
2013-02-16 02:12:00,41.2,31.1,29.97,West,277,1.0,2.0,67,0.00,,,0.00,0.00,VWS V14.01,2013-02-16 07:12:00,
2013-02-16 02:17:00,41.2,30.7,29.98,NNW,327,1.0,1.0,66,0.00,,,0.00,0.00,VWS V14.01,2013-02-16 07:17:00,
2013-02-16 02:22:00,41.1,30.2,29.98,West,265,0.0,3.0,65,0.00,,,0.00,0.00,VWS V14.01,2013-02-16 07:22:00,
2013-02-16 02:27:00,41.1,29.9,29.97,NNW,327,3.0,5.0,64,0.00,,,0.00,0.00,VWS V14.01,2013-02-16 07:27:00,
2013-02-16 02:32:00,41.1,29.5,29.97,NNW,342,1.0,4.0,63,0.00,,,0.00,0.00,VWS V14.01,2013-02-16 07:32:00,
2013-02-16 02:37:00,41.0,29.0,29.97,NNE,26,4.0,7.0,62,0.00,,,0.00,0.00,VWS V14.01,2013-02-16 07:37:00,
2013-02-16 02:42:00,40.9,28.5,29.97,NNW,340,2.0,4.0,61,0.00,,,0.00,0.00,VWS V14.01,2013-02-16 07:42:00,
2013-02-16 02:47:00,40.8,28.4,29.97,NNE,13,3.0,4.0,61,0.00,,,0.00,0.00,VWS V14.01,2013-02-16 07:47:00,
2013-02-16 02:52:00,40.6,27.8,29.97,NNW,338,3.0,4.0,60,0.00,,,0.00,0.00,VWS V14.01,2013-02-16 07:52:00,
2013-02-16 02:57:00,40.5,27.7,29.97,NNE,21,0.0,1.0,60,0.00,,,0.00,0.00,VWS V14.01,2013-02-16 07:57:00,
2013-02-16 03:02:00,40.4,27.6,29.97,NNW,339,1.0,3.0,60,0.00,,,0.00,0.00,VWS V14.01,2013-02-16 08:02:00,
2013-02-16 03:07:00,40.2,27.8,29.97,ENE,59,0.0,3.0,61,0.00,,,0.00,0.00,VWS V14.01,2013-02-16 08:07:00,
2013-02-16 03:12:00,40.1,27.4,29.97,North,355,2.0,3.0,60,0.00,,,0.00,0.00,VWS V14.01,2013-02-16 08:12:00,
2013-02-16 03:17:00,40.0,27.6,29.97,NNE,27,2.0,2.0,61,0.00,,,0.00,0.00,VWS V14.01,2013-02-16 08:17:00,
2013-02-16 03:22:00,40.0,27.6,29.96,NNE,19,1.0,3.0,61,0.00,,,0.00,0.00,VWS V14.01,2013-02-16 08:22:00,
2013-02-16 03:27:00,39.9,27.6,29.96,NNE,21,0.0,2.0,61,0.00,,,0.00,0.00,VWS V14.01,2013-02-16 08:27:00,
2013-02-16 03:32:00,40.0,27.6,29.96,NNE,17,2.0,3.0,61,0.00,,,0.00,0.00,VWS V14.01,2013-02-16 08:32:00,
2013-02-16 03:37:00,40.0,27.6,29.96,NNE,12,2.0,3.0,61,0.00,,,0.00,0.00,VWS V14.01,2013-02-16 08:37:00,
2013-02-16 03:42:00,39.9,28.0,29.96,NNE,12,0.0,1.0,62,0.00,,,0.00,0.00,VWS V14.01,2013-02-16 08:42:00,
2013-02-16 03:47:00,39.9,28.0,29.96,North,360,3.0,3.0,62,0.00,,,0.00,0.00,VWS V14.01,2013-02-16 08:47:00,
2013-02-16 03:52:00,39.8,27.9,29.96,North,360,0.0,0.0,62,0.00,,,0.00,0.00,VWS V14.01,2013-02-16 08:52:00,
2013-02-16 03:57:00,39.8,27.9,29.96,North,360,1.0,2.0,62,0.00,,,0.00,0.00,VWS V14.01,2013-02-16 08:57:00,
2013-02-16 04:02:00,39.7,27.8,29.96,North,360,0.0,0.0,62,0.00,,,0.00,0.00,VWS V14.01,2013-02-16 09:02:00,
2013-02-16 04:07:00,39.7,27.8,29.96,North,5,0.0,1.0,62,0.00,,,0.00,0.00,VWS V14.01,2013-02-16 09:07:00,
2013-02-16 04:12:00,39.6,27.7,29.96,North,5,0.0,0.0,62,0.00,,,0.00,0.00,VWS V14.01,2013-02-16 09:12:00,
2013-02-16 04:17:00,39.6,28.1,29.95,North,5,0.0,0.0,63,0.00,,,0.00,0.00,VWS V14.01,2013-02-16 09:17:00,
2013-02-16 04:22:00,39.5,28.0,29.95,North,5,1.0,1.0,63,0.00,,,0.00,0.00,VWS V14.01,2013-02-16 09:22:00,
2013-02-16 04:27:00,39.5,28.0,29.95,North,5,0.0,1.0,63,0.00,,,0.00,0.00,VWS V14.01,2013-02-16 09:27:00,
2013-02-16 04:32:00,39.4,28.2,29.95,North,5,0.0,0.0,64,0.00,,,0.00,0.00,VWS V14.01,2013-02-16 09:32:00,
2013-02-16 04:37:00,39.4,27.9,29.95,North,5,1.0,3.0,63,0.00,,,0.00,0.00,VWS V14.01,2013-02-16 09:37:00,
2013-02-16 04:42:00,39.3,27.8,29.96,North,5,0.0,1.0,63,0.00,,,0.00,0.00,VWS V14.01,2013-02-16 09:42:00,
2013-02-16 04:47:00,39.3,28.5,29.96,North,5,0.0,1.0,65,0.00,,,0.00,0.00,VWS V14.01,2013-02-16 09:47:00,
2013-02-16 04:52:00,39.2,28.4,29.96,North,360,0.0,1.0,65,0.00,,,0.00,0.00,VWS V14.01,2013-02-16 09:52:00,
2013-02-16 04:57:00,39.2,27.7,29.96,North,360,0.0,1.0,63,0.00,,,0.00,0.00,VWS V14.01,2013-02-16 09:57:00,
2013-02-16 05:02:00,39.2,28.1,29.96,North,360,0.0,2.0,64,0.00,,,0.00,0.00,VWS V14.01,2013-02-16 10:02:00,
2013-02-16 05:07:00,39.2,27.7,29.96,North,360,1.0,1.0,63,0.00,,,0.00,0.00,VWS V14.01,2013-02-16 10:07:00,
2013-02-16 05:12:00,39.1,28.0,29.96,North,360,0.0,2.0,64,0.00,,,0.00,0.00,VWS V14.01,2013-02-16 10:12:00,
2013-02-16 05:17:00,39.1,27.6,29.96,NNE,14,1.0,3.0,63,0.00,,,0.00,0.00,VWS V14.01,2013-02-16 10:17:00,
2013-02-16 05:22:00,39.1,27.6,29.95,NNE,14,0.0,1.0,63,0.00,,,0.00,0.00,VWS V14.01,2013-02-16 10:22:00,
2013-02-16 05:27:00,39.1,27.6,29.95,NNE,13,0.0,3.0,63,0.00,,,0.00,0.00,VWS V14.01,2013-02-16 10:27:00,
2013-02-16 05:32:00,39.0,27.9,29.95,NNE,12,3.0,3.0,64,0.00,,,0.00,0.00,VWS V14.01,2013-02-16 10:32:00,
2013-02-16 05:37:00,39.0,27.9,29.95,North,11,0.0,1.0,64,0.00,,,0.00,0.00,VWS V14.01,2013-02-16 10:37:00,
2013-02-16 05:42:00,39.0,27.5,29.96,NNE,28,0.0,3.0,63,0.00,,,0.00,0.00,VWS V14.01,2013-02-16 10:42:00,
2013-02-16 05:47:00,39.0,27.9,29.96,NE,37,3.0,3.0,64,0.00,,,0.00,0.00,VWS V14.01,2013-02-16 10:47:00,
2013-02-16 05:52:00,39.0,27.5,29.96,NNE,22,1.0,3.0,63,0.00,,,0.00,0.00,VWS V14.01,2013-02-16 10:52:00,
2013-02-16 05:57:00,39.0,27.9,29.96,NNE,24,5.0,5.0,64,0.00,,,0.00,0.00,VWS V14.01,2013-02-16 10:57:00,
2013-02-16 06:02:00,38.8,29.2,29.96,WNW,285,2.0,6.0,68,0.00,,,0.00,0.00,VWS V14.01,2013-02-16 11:02:00,
2013-02-16 06:07:00,38.5,29.2,29.96,East,84,0.0,0.0,69,0.00,,,0.00,0.00,VWS V14.01,2013-02-16 11:07:00,
2013-02-16 06:12:00,38.4,29.8,29.96,East,84,1.0,1.0,71,0.00,,,0.00,0.00,VWS V14.01,2013-02-16 11:12:00,
2013-02-16 06:17:00,38.2,30.3,29.96,ESE,113,0.0,1.0,73,0.00,,,0.00,0.00,VWS V14.01,2013-02-16 11:17:00,
2013-02-16 06:22:00,37.9,30.4,29.96,East,97,0.0,1.0,74,0.00,,,0.00,0.00,VWS V14.01,2013-02-16 11:22:00,
2013-02-16 06:27:00,37.6,30.4,29.96,ESE,111,0.0,0.0,75,0.00,,,0.00,0.00,VWS V14.01,2013-02-16 11:27:00,
2013-02-16 06:32:00,37.4,30.5,29.96,ESE,111,0.0,0.0,76,0.00,,,0.00,0.00,VWS V14.01,2013-02-16 11:32:00,
2013-02-16 06:37:00,37.3,30.8,29.96,ESE,111,0.0,0.0,77,0.00,,,0.00,0.00,VWS V14.01,2013-02-16 11:37:00,
2013-02-16 06:42:00,37.1,30.9,29.96,ESE,111,0.0,0.0,78,0.00,,,0.00,0.00,VWS V14.01,2013-02-16 11:42:00,
2013-02-16 06:47:00,37.0,31.1,29.95,ESE,120,0.0,1.0,79,0.00,,,0.00,0.00,VWS V14.01,2013-02-16 11:47:00,
2013-02-16 06:52:00,36.8,30.9,29.95,ESE,120,0.0,0.0,79,0.00,,,0.00,0.00,VWS V14.01,2013-02-16 11:52:00,
2013-02-16 06:57:00,36.7,30.8,29.95,ESE,120,0.0,0.0,79,0.00,,,0.00,0.00,VWS V14.01,2013-02-16 11:57:00,
2013-02-16 07:02:00,36.6,30.7,29.96,ESE,120,0.0,0.0,79,0.00,,,0.00,0.00,VWS V14.01,2013-02-16 12:02:00,
2013-02-16 07:07:00,36.5,30.9,29.96,ESE,120,0.0,0.0,80,0.00,,,0.00,0.00,VWS V14.01,2013-02-16 12:07:00,
2013-02-16 07:12:00,36.5,30.9,29.96,ESE,120,0.0,0.0,80,0.00,,,0.00,0.00,VWS V14.01,2013-02-16 12:12:00,
2013-02-16 07:17:00,36.4,30.8,29.96,ESE,120,0.0,0.0,80,0.00,,,0.00,0.00,VWS V14.01,2013-02-16 12:17:00,
2013-02-16 07:22:00,36.4,30.8,29.96,ESE,120,0.0,0.0,80,0.00,,,0.00,0.00,VWS V14.01,2013-02-16 12:22:00,
2013-02-16 07:27:00,36.4,30.8,29.97,ESE,120,0.0,0.0,80,0.00,,,0.00,0.00,VWS V14.01,2013-02-16 12:27:00,
2013-02-16 07:32:00,36.4,31.1,29.97,ESE,120,0.0,0.0,81,0.00,,,0.00,0.00,VWS V14.01,2013-02-16 12:32:00,
2013-02-16 07:37:00,36.3,31.0,29.97,ESE,120,0.0,0.0,81,0.00,,,0.00,7.00,VWS V14.01,2013-02-16 12:37:00,
2013-02-16 07:42:00,36.4,31.4,29.97,ESE,120,0.0,0.0,82,0.00,,,0.00,9.00,VWS V14.01,2013-02-16 12:42:00,
2013-02-16 07:47:00,36.4,31.4,29.97,ESE,120,0.0,0.0,82,0.00,,,0.00,11.00,VWS V14.01,2013-02-16 12:47:00,
2013-02-16 07:52:00,36.4,31.7,29.97,ESE,120,0.0,0.0,83,0.00,,,0.00,14.00,VWS V14.01,2013-02-16 12:52:00,
2013-02-16 07:57:00,36.4,31.7,29.97,ESE,120,0.0,0.0,83,0.00,,,0.00,28.00,VWS V14.01,2013-02-16 12:57:00,
2013-02-16 08:02:00,36.3,31.9,29.97,ESE,120,0.0,0.0,84,0.00,,,0.00,28.00,VWS V14.01,2013-02-16 13:02:00,
2013-02-16 08:07:00,36.2,31.8,29.97,ESE,120,0.0,0.0,84,0.00,,,0.00,35.00,VWS V14.01,2013-02-16 13:07:00,
2013-02-16 08:12:00,36.1,31.7,29.97,ESE,120,0.0,0.0,84,0.00,,,0.00,33.00,VWS V14.01,2013-02-16 13:12:00,
2013-02-16 08:17:00,36.0,31.9,29.97,ESE,120,0.0,0.0,85,0.00,,,0.00,25.00,VWS V14.01,2013-02-16 13:17:00,
2013-02-16 08:22:00,35.8,32.0,29.97,ESE,120,0.0,0.0,86,0.01,,,0.01,35.00,VWS V14.01,2013-02-16 13:22:00,
2013-02-16 08:27:00,35.6,32.1,29.97,ESE,120,0.0,0.0,87,0.01,,,0.01,49.00,VWS V14.01,2013-02-16 13:27:00,
2013-02-16 08:32:00,35.5,32.0,29.97,ESE,120,0.0,1.0,87,0.01,,,0.01,51.00,VWS V14.01,2013-02-16 13:32:00,
2013-02-16 08:37:00,35.3,32.1,29.97,ESE,120,0.0,0.0,88,0.01,,,0.01,62.00,VWS V14.01,2013-02-16 13:37:00,
2013-02-16 08:42:00,35.3,32.1,29.97,ESE,120,0.0,2.0,88,0.02,,,0.02,70.00,VWS V14.01,2013-02-16 13:42:00,
2013-02-16 08:47:00,35.1,32.2,29.97,ESE,104,1.0,1.0,89,0.02,,,0.02,76.00,VWS V14.01,2013-02-16 13:47:00,
2013-02-16 08:52:00,35.0,32.1,29.96,ESE,105,0.0,0.0,89,0.02,,,0.02,102.00,VWS V14.01,2013-02-16 13:52:00,
2013-02-16 08:57:00,35.0,32.4,29.95,East,98,0.0,3.0,90,0.02,,,0.02,134.00,VWS V14.01,2013-02-16 13:57:00,
2013-02-16 09:02:00,35.0,32.4,29.95,ESE,110,2.0,2.0,90,0.02,,,0.02,123.00,VWS V14.01,2013-02-16 14:02:00,
2013-02-16 09:07:00,35.2,32.6,29.95,ESE,110,0.0,0.0,90,0.02,,,0.02,98.00,VWS V14.01,2013-02-16 14:07:00,
2013-02-16 09:12:00,35.3,32.9,29.94,ESE,110,0.0,0.0,91,0.02,,,0.02,93.00,VWS V14.01,2013-02-16 14:12:00,
2013-02-16 09:17:00,35.4,32.8,29.94,ESE,110,0.0,0.0,90,0.02,,,0.02,95.00,VWS V14.01,2013-02-16 14:17:00,
2013-02-16 09:22:00,35.5,32.9,29.94,ESE,111,0.0,0.0,90,0.01,,,0.02,90.00,VWS V14.01,2013-02-16 14:22:00,
2013-02-16 09:27:00,35.5,32.9,29.94,ESE,111,0.0,0.0,90,0.01,,,0.02,88.00,VWS V14.01,2013-02-16 14:27:00,
2013-02-16 09:32:00,35.6,33.0,29.94,ESE,111,0.0,0.0,90,0.01,,,0.02,102.00,VWS V14.01,2013-02-16 14:32:00,
2013-02-16 09:37:00,35.7,33.1,29.94,ESE,113,0.0,1.0,90,0.01,,,0.02,107.00,VWS V14.01,2013-02-16 14:37:00,
2013-02-16 09:42:00,35.7,33.1,29.94,ESE,113,0.0,0.0,90,0.00,,,0.02,111.00,VWS V14.01,2013-02-16 14:42:00,
2013-02-16 09:47:00,35.8,32.9,29.94,East,86,0.0,0.0,89,0.00,,,0.02,132.00,VWS V14.01,2013-02-16 14:47:00,
2013-02-16 09:52:00,35.8,32.9,29.94,East,86,0.0,0.0,89,0.00,,,0.02,130.00,VWS V14.01,2013-02-16 14:52:00,
2013-02-16 09:57:00,36.1,33.2,29.95,SSW,194,0.0,1.0,89,0.00,,,0.02,114.00,VWS V14.01,2013-02-16 14:57:00,
2013-02-16 10:02:00,36.2,33.0,29.94,SSW,194,0.0,0.0,88,0.00,,,0.02,109.00,VWS V14.01,2013-02-16 15:02:00,
2013-02-16 10:07:00,36.1,32.9,29.94,SSW,194,1.0,1.0,88,0.00,,,0.02,90.00,VWS V14.01,2013-02-16 15:07:00,
2013-02-16 10:12:00,36.2,32.7,29.94,SSW,194,0.0,0.0,87,0.00,,,0.02,77.00,VWS V14.01,2013-02-16 15:12:00,
2013-02-16 10:17:00,36.2,32.7,29.94,SSW,194,0.0,0.0,87,0.00,,,0.02,72.00,VWS V14.01,2013-02-16 15:17:00,
2013-02-16 10:22:00,36.4,32.9,29.94,SSW,194,0.0,0.0,87,0.00,,,0.02,76.00,VWS V14.01,2013-02-16 15:22:00,
2013-02-16 10:27:00,36.5,33.3,29.94,SSW,194,1.0,1.0,88,0.00,,,0.02,88.00,VWS V14.01,2013-02-16 15:27:00,
2013-02-16 10:32:00,36.5,32.7,29.94,SSW,194,0.0,0.0,86,0.00,,,0.02,95.00,VWS V14.01,2013-02-16 15:32:00,
2013-02-16 10:37:00,36.5,32.7,29.94,WSW,243,1.0,1.0,86,0.00,,,0.02,118.00,VWS V14.01,2013-02-16 15:37:00,
2013-02-16 10:42:00,36.5,32.7,29.94,WSW,243,0.0,0.0,86,0.00,,,0.02,104.00,VWS V14.01,2013-02-16 15:42:00,
2013-02-16 10:47:00,36.5,32.7,29.94,WSW,243,0.0,0.0,86,0.00,,,0.02,86.00,VWS V14.01,2013-02-16 15:47:00,
2013-02-16 10:52:00,36.5,32.7,29.94,WSW,243,0.0,0.0,86,0.00,,,0.02,93.00,VWS V14.01,2013-02-16 15:52:00,
2013-02-16 10:57:00,36.6,32.8,29.94,WSW,243,0.0,1.0,86,0.00,,,0.02,98.00,VWS V14.01,2013-02-16 15:57:00,
2013-02-16 11:02:00,36.7,32.9,29.94,WSW,243,1.0,1.0,86,0.00,,,0.02,98.00,VWS V14.01,2013-02-16 16:02:00,
2013-02-16 11:07:00,36.9,33.4,29.94,WSW,243,1.0,2.0,87,0.00,,,0.02,95.00,VWS V14.01,2013-02-16 16:07:00,
2013-02-16 11:12:00,36.9,32.5,29.94,SSE,152,0.0,1.0,84,0.00,,,0.02,86.00,VWS V14.01,2013-02-16 16:12:00,
2013-02-16 11:17:00,36.9,32.8,29.93,SSE,152,0.0,0.0,85,0.00,,,0.02,83.00,VWS V14.01,2013-02-16 16:17:00,
2013-02-16 11:22:00,37.1,33.0,29.93,SSE,152,1.0,1.0,85,0.00,,,0.02,83.00,VWS V14.01,2013-02-16 16:22:00,
2013-02-16 11:27:00,37.1,32.4,29.93,SE,144,0.0,0.0,83,0.00,,,0.02,86.00,VWS V14.01,2013-02-16 16:27:00,
2013-02-16 11:32:00,37.2,32.5,29.92,SE,144,0.0,0.0,83,0.00,,,0.02,97.00,VWS V14.01,2013-02-16 16:32:00,
2013-02-16 11:37:00,37.1,32.1,29.92,ENE,74,2.0,3.0,82,0.00,,,0.02,86.00,VWS V14.01,2013-02-16 16:37:00,
2013-02-16 11:42:00,37.1,32.1,29.92,SE,140,0.0,1.0,82,0.00,,,0.02,83.00,VWS V14.01,2013-02-16 16:42:00,
2013-02-16 11:47:00,37.1,31.8,29.92,SE,140,2.0,2.0,81,0.00,,,0.02,90.00,VWS V14.01,2013-02-16 16:47:00,
2013-02-16 11:52:00,37.1,31.8,29.91,ESE,106,1.0,2.0,81,0.00,,,0.02,100.00,VWS V14.01,2013-02-16 16:52:00,
2013-02-16 11:57:00,37.0,31.7,29.91,ESE,106,0.0,1.0,81,0.00,,,0.02,116.00,VWS V14.01,2013-02-16 16:57:00,
2013-02-16 12:02:00,37.1,31.8,29.91,ESE,106,0.0,0.0,81,0.00,,,0.02,141.00,VWS V14.01,2013-02-16 17:02:00,
2013-02-16 12:07:00,37.3,32.3,29.91,ESE,104,1.0,2.0,82,0.00,,,0.02,149.00,VWS V14.01,2013-02-16 17:07:00,
2013-02-16 12:12:00,37.3,32.0,29.91,East,88,2.0,2.0,81,0.00,,,0.02,144.00,VWS V14.01,2013-02-16 17:12:00,
2013-02-16 12:17:00,37.2,31.9,29.91,ENE,78,1.0,1.0,81,0.00,,,0.02,134.00,VWS V14.01,2013-02-16 17:17:00,
2013-02-16 12:22:00,37.3,32.3,29.91,ENE,78,0.0,0.0,82,0.00,,,0.02,134.00,VWS V14.01,2013-02-16 17:22:00,
2013-02-16 12:27:00,37.4,32.1,29.90,ENE,78,0.0,1.0,81,0.00,,,0.02,160.00,VWS V14.01,2013-02-16 17:27:00,
2013-02-16 12:32:00,37.4,32.4,29.89,ENE,78,0.0,0.0,82,0.00,,,0.02,262.00,VWS V14.01,2013-02-16 17:32:00,
2013-02-16 12:37:00,37.7,32.7,29.89,ENE,67,0.0,0.0,82,0.00,,,0.02,195.00,VWS V14.01,2013-02-16 17:37:00,
2013-02-16 12:42:00,38.1,33.4,29.89,ENE,67,0.0,0.0,83,0.00,,,0.02,178.00,VWS V14.01,2013-02-16 17:42:00,
2013-02-16 12:47:00,38.3,33.0,29.90,SSE,165,0.0,0.0,81,0.00,,,0.02,155.00,VWS V14.01,2013-02-16 17:47:00,
2013-02-16 12:52:00,38.4,32.8,29.89,SSE,165,0.0,1.0,80,0.00,,,0.02,134.00,VWS V14.01,2013-02-16 17:52:00,
2013-02-16 12:57:00,38.5,33.2,29.88,NE,53,1.0,3.0,81,0.00,,,0.02,120.00,VWS V14.01,2013-02-16 17:57:00,
2013-02-16 13:02:00,38.4,32.2,29.88,SSW,204,0.0,1.0,78,0.00,,,0.02,107.00,VWS V14.01,2013-02-16 18:02:00,
2013-02-16 13:07:00,38.4,32.5,29.88,SSW,203,0.0,0.0,79,0.00,,,0.02,91.00,VWS V14.01,2013-02-16 18:07:00,
2013-02-16 13:12:00,38.3,32.0,29.87,NE,39,0.0,1.0,78,0.00,,,0.02,102.00,VWS V14.01,2013-02-16 18:12:00,
2013-02-16 13:17:00,38.2,32.0,29.87,NE,39,2.0,2.0,78,0.00,,,0.02,128.00,VWS V14.01,2013-02-16 18:17:00,
2013-02-16 13:22:00,38.2,32.0,29.87,NE,50,1.0,1.0,78,0.00,,,0.02,132.00,VWS V14.01,2013-02-16 18:22:00,
2013-02-16 13:27:00,38.3,32.0,29.87,NE,49,1.0,2.0,78,0.00,,,0.02,127.00,VWS V14.01,2013-02-16 18:27:00,
2013-02-16 13:32:00,38.3,32.0,29.87,NE,49,0.0,0.0,78,0.00,,,0.02,116.00,VWS V14.01,2013-02-16 18:32:00,
2013-02-16 13:37:00,38.4,32.2,29.87,NE,49,0.0,0.0,78,0.00,,,0.02,123.00,VWS V14.01,2013-02-16 18:37:00,
2013-02-16 13:42:00,38.4,32.2,29.87,NE,49,1.0,1.0,78,0.00,,,0.02,125.00,VWS V14.01,2013-02-16 18:42:00,
2013-02-16 13:47:00,38.6,32.7,29.87,NE,55,0.0,0.0,79,0.00,,,0.02,93.00,VWS V14.01,2013-02-16 18:47:00,
2013-02-16 13:52:00,38.7,32.8,29.86,ENE,69,0.0,1.0,79,0.00,,,0.02,76.00,VWS V14.01,2013-02-16 18:52:00,
2013-02-16 13:57:00,38.7,32.4,29.87,ENE,69,1.0,1.0,78,0.00,,,0.02,53.00,VWS V14.01,2013-02-16 18:57:00,
2013-02-16 14:02:00,38.6,32.0,29.86,ENE,69,0.0,1.0,77,0.00,,,0.02,58.00,VWS V14.01,2013-02-16 19:02:00,
2013-02-16 14:07:00,38.5,31.9,29.86,ENE,69,0.0,0.0,77,0.00,,,0.02,72.00,VWS V14.01,2013-02-16 19:07:00,
2013-02-16 14:12:00,38.5,32.2,29.85,ENE,69,0.0,1.0,78,0.00,,,0.02,102.00,VWS V14.01,2013-02-16 19:12:00,
2013-02-16 14:17:00,38.4,31.2,29.85,South,178,0.0,0.0,75,0.00,,,0.02,81.00,VWS V14.01,2013-02-16 19:17:00,
2013-02-16 14:22:00,38.3,31.4,29.86,NE,34,2.0,3.0,76,0.00,,,0.02,60.00,VWS V14.01,2013-02-16 19:22:00,
2013-02-16 14:27:00,38.1,31.9,29.85,NE,34,2.0,2.0,78,0.00,,,0.02,86.00,VWS V14.01,2013-02-16 19:27:00,
2013-02-16 14:32:00,38.0,32.1,29.86,NE,38,1.0,1.0,79,0.00,,,0.02,104.00,VWS V14.01,2013-02-16 19:32:00,
2013-02-16 14:37:00,37.9,32.3,29.85,NE,41,0.0,0.0,80,0.00,,,0.02,125.00,VWS V14.01,2013-02-16 19:37:00,
2013-02-16 14:42:00,38.0,32.7,29.85,ENE,61,0.0,0.0,81,0.00,,,0.02,144.00,VWS V14.01,2013-02-16 19:42:00,
2013-02-16 14:47:00,37.9,32.0,29.85,NNE,26,2.0,2.0,79,0.00,,,0.02,144.00,VWS V14.01,2013-02-16 19:47:00,
2013-02-16 14:52:00,37.9,32.0,29.84,NNE,22,1.0,2.0,79,0.00,,,0.02,139.00,VWS V14.01,2013-02-16 19:52:00,
2013-02-16 14:57:00,37.8,31.6,29.84,ENE,65,0.0,0.0,78,0.00,,,0.02,137.00,VWS V14.01,2013-02-16 19:57:00,
2013-02-16 15:02:00,37.7,31.5,29.84,ENE,63,3.0,4.0,78,0.00,,,0.02,132.00,VWS V14.01,2013-02-16 20:02:00,
2013-02-16 15:07:00,37.6,31.4,29.84,ENE,63,1.0,1.0,78,0.00,,,0.02,123.00,VWS V14.01,2013-02-16 20:07:00,
2013-02-16 15:12:00,37.5,30.6,29.85,North,360,2.0,2.0,76,0.00,,,0.02,109.00,VWS V14.01,2013-02-16 20:12:00,
2013-02-16 15:17:00,37.6,31.1,29.85,NNE,12,4.0,6.0,77,0.00,,,0.02,113.00,VWS V14.01,2013-02-16 20:17:00,
2013-02-16 15:22:00,37.6,31.1,29.84,NNW,347,2.0,2.0,77,0.00,,,0.02,146.00,VWS V14.01,2013-02-16 20:22:00,
2013-02-16 15:27:00,37.7,30.8,29.85,North,360,2.0,3.0,76,0.00,,,0.02,118.00,VWS V14.01,2013-02-16 20:27:00,
2013-02-16 15:32:00,37.6,30.4,29.85,NNE,19,0.0,1.0,75,0.00,,,0.02,95.00,VWS V14.01,2013-02-16 20:32:00,
2013-02-16 15:37:00,37.5,30.0,29.85,NE,34,3.0,3.0,74,0.00,,,0.02,320.00,VWS V14.01,2013-02-16 20:37:00,
2013-02-16 15:42:00,37.3,29.8,29.84,North,351,4.0,5.0,74,0.00,,,0.02,288.00,VWS V14.01,2013-02-16 20:42:00,
2013-02-16 15:47:00,37.4,28.5,29.84,NNW,334,4.0,5.0,70,0.00,,,0.02,318.00,VWS V14.01,2013-02-16 20:47:00,
2013-02-16 15:52:00,37.8,29.3,29.84,NNE,17,1.0,1.0,71,0.00,,,0.02,352.00,VWS V14.01,2013-02-16 20:52:00,
2013-02-16 15:57:00,38.4,30.2,29.84,NNE,17,1.0,1.0,72,0.00,,,0.02,193.00,VWS V14.01,2013-02-16 20:57:00,
2013-02-16 16:02:00,38.7,29.8,29.84,North,360,3.0,4.0,70,0.00,,,0.02,204.00,VWS V14.01,2013-02-16 21:02:00,
2013-02-16 16:07:00,38.6,29.3,29.85,NNE,13,5.0,5.0,69,0.00,,,0.02,169.00,VWS V14.01,2013-02-16 21:07:00,
2013-02-16 16:12:00,38.4,29.1,29.85,NNW,333,2.0,3.0,69,0.00,,,0.02,51.00,VWS V14.01,2013-02-16 21:12:00,
2013-02-16 16:17:00,38.2,28.6,29.85,NW,326,3.0,3.0,68,0.00,,,0.02,37.00,VWS V14.01,2013-02-16 21:17:00,
2013-02-16 16:22:00,38.0,28.8,29.84,North,360,6.0,6.0,69,0.00,,,0.02,63.00,VWS V14.01,2013-02-16 21:22:00,
2013-02-16 16:27:00,37.6,28.0,29.84,NNE,25,0.0,0.0,68,0.00,,,0.02,91.00,VWS V14.01,2013-02-16 21:27:00,
2013-02-16 16:32:00,37.5,28.3,29.84,NNE,25,4.0,4.0,69,0.00,,,0.02,100.00,VWS V14.01,2013-02-16 21:32:00,
2013-02-16 16:37:00,37.4,27.8,29.84,NNE,24,1.0,1.0,68,0.00,,,0.02,107.00,VWS V14.01,2013-02-16 21:37:00,
2013-02-16 16:42:00,37.4,28.2,29.84,NNW,344,1.0,1.0,69,0.00,,,0.02,76.00,VWS V14.01,2013-02-16 21:42:00,
2013-02-16 16:47:00,37.3,28.1,29.84,NNE,12,0.0,0.0,69,0.00,,,0.02,25.00,VWS V14.01,2013-02-16 21:47:00,
2013-02-16 16:52:00,37.3,28.1,29.85,North,360,2.0,2.0,69,0.00,,,0.02,35.00,VWS V14.01,2013-02-16 21:52:00,
2013-02-16 16:57:00,37.3,28.1,29.85,North,351,0.0,1.0,69,0.00,,,0.02,40.00,VWS V14.01,2013-02-16 21:57:00,
2013-02-16 17:02:00,37.3,28.4,29.85,NNE,13,1.0,2.0,70,0.00,,,0.02,25.00,VWS V14.01,2013-02-16 22:02:00,
2013-02-16 17:07:00,37.2,27.6,29.85,North,349,5.0,5.0,68,0.00,,,0.02,25.00,VWS V14.01,2013-02-16 22:07:00,
2013-02-16 17:12:00,37.1,26.8,29.85,NNE,32,1.0,2.0,66,0.00,,,0.02,26.00,VWS V14.01,2013-02-16 22:12:00,
2013-02-16 17:17:00,37.0,26.0,29.86,NNE,14,0.0,1.0,64,0.00,,,0.02,25.00,VWS V14.01,2013-02-16 22:17:00,
2013-02-16 17:22:00,36.9,25.5,29.86,NNE,28,8.0,8.0,63,0.00,,,0.02,25.00,VWS V14.01,2013-02-16 22:22:00,
2013-02-16 17:27:00,37.0,24.8,29.86,WNW,293,3.0,4.0,61,0.00,,,0.02,21.00,VWS V14.01,2013-02-16 22:27:00,
2013-02-16 17:32:00,37.0,23.6,29.86,NNE,13,2.0,3.0,58,0.00,,,0.02,16.00,VWS V14.01,2013-02-16 22:32:00,
2013-02-16 17:37:00,37.0,23.6,29.86,North,355,3.0,3.0,58,0.00,,,0.02,14.00,VWS V14.01,2013-02-16 22:37:00,
2013-02-16 17:42:00,37.0,22.4,29.87,NNE,24,2.0,3.0,55,0.00,,,0.02,12.00,VWS V14.01,2013-02-16 22:42:00,
2013-02-16 17:47:00,37.0,21.9,29.87,North,351,4.0,4.0,54,0.00,,,0.02,11.00,VWS V14.01,2013-02-16 22:47:00,
2013-02-16 17:52:00,37.0,21.9,29.87,NNW,342,1.0,1.0,54,0.00,,,0.02,9.00,VWS V14.01,2013-02-16 22:52:00,
2013-02-16 17:57:00,36.9,21.4,29.87,North,9,1.0,1.0,53,0.00,,,0.02,5.00,VWS V14.01,2013-02-16 22:57:00,
2013-02-16 18:02:00,36.8,21.3,29.87,SSE,167,0.0,1.0,53,0.00,,,0.02,0.00,VWS V14.01,2013-02-16 23:02:00,
2013-02-16 18:07:00,36.7,21.2,29.88,NNE,24,2.0,3.0,53,0.00,,,0.02,0.00,VWS V14.01,2013-02-16 23:07:00,
2013-02-16 18:12:00,36.6,21.1,29.88,NE,42,2.0,3.0,53,0.00,,,0.02,0.00,VWS V14.01,2013-02-16 23:12:00,
2013-02-16 18:17:00,36.4,20.9,29.88,NNE,17,6.0,6.0,53,0.00,,,0.02,0.00,VWS V14.01,2013-02-16 23:17:00,
2013-02-16 18:22:00,36.3,19.9,29.88,North,360,2.0,2.0,51,0.00,,,0.02,0.00,VWS V14.01,2013-02-16 23:22:00,
2013-02-16 18:27:00,36.2,19.4,29.88,North,11,3.0,5.0,50,0.00,,,0.02,0.00,VWS V14.01,2013-02-16 23:27:00,
2013-02-16 18:31:00,36.1,18.8,29.89,NNW,329,6.0,11.0,49,0.00,,,0.02,0.00,VWS V14.01,2013-02-16 23:31:00,
2013-02-16 18:36:00,36.0,18.2,29.89,NE,35,1.0,4.0,48,0.00,,,0.02,0.00,VWS V14.01,2013-02-16 23:36:00,
2013-02-16 18:41:00,35.9,19.1,29.89,NW,325,4.0,10.0,50,0.00,,,0.02,0.00,VWS V14.01,2013-02-16 23:41:00,
2013-02-16 18:47:00,35.8,19.0,29.90,NNE,16,3.0,5.0,50,0.00,,,0.02,0.00,VWS V14.01,2013-02-16 23:47:00,
2013-02-16 18:51:00,35.7,18.9,29.90,NW,326,4.0,4.0,50,0.00,,,0.02,0.00,VWS V14.01,2013-02-16 23:51:00,
2013-02-16 18:56:00,35.6,18.3,29.90,NNW,342,3.0,4.0,49,0.00,,,0.02,0.00,VWS V14.01,2013-02-16 23:56:00,
2013-02-16 19:01:00,35.5,18.2,29.90,North,9,2.0,2.0,49,0.00,,,0.02,0.00,VWS V14.01,2013-02-17 00:01:00,
2013-02-16 19:06:00,35.5,18.2,29.90,North,355,1.0,5.0,49,0.00,,,0.02,0.00,VWS V14.01,2013-02-17 00:06:00,
2013-02-16 19:11:00,35.3,18.1,29.91,NNW,340,0.0,3.0,49,0.00,,,0.02,0.00,VWS V14.01,2013-02-17 00:11:00,
2013-02-16 19:16:00,35.2,17.5,29.91,NW,315,0.0,2.0,48,0.00,,,0.02,0.00,VWS V14.01,2013-02-17 00:16:00,
2013-02-16 19:21:00,35.1,16.4,29.91,NW,325,4.0,5.0,46,0.00,,,0.02,0.00,VWS V14.01,2013-02-17 00:21:00,
2013-02-16 19:26:00,35.0,16.8,29.91,North,360,1.0,1.0,47,0.00,,,0.02,0.00,VWS V14.01,2013-02-17 00:26:00,
2013-02-16 19:31:00,34.8,16.6,29.91,NW,325,1.0,2.0,47,0.00,,,0.02,0.00,VWS V14.01,2013-02-17 00:31:00,
2013-02-16 19:36:00,34.6,16.0,29.91,North,355,3.0,4.0,46,0.00,,,0.02,0.00,VWS V14.01,2013-02-17 00:36:00,
2013-02-16 19:41:00,34.5,15.9,29.92,North,355,3.0,9.0,46,0.00,,,0.02,0.00,VWS V14.01,2013-02-17 00:41:00,
2013-02-16 19:46:00,34.4,15.8,29.92,WNW,288,1.0,2.0,46,0.00,,,0.02,0.00,VWS V14.01,2013-02-17 00:46:00,
2013-02-16 19:51:00,34.3,15.2,29.92,West,267,3.0,7.0,45,0.00,,,0.02,0.00,VWS V14.01,2013-02-17 00:51:00,
2013-02-16 19:56:00,34.1,15.0,29.92,North,351,2.0,6.0,45,0.00,,,0.02,0.00,VWS V14.01,2013-02-17 00:56:00,
2013-02-16 20:01:00,33.9,14.8,29.92,WNW,286,5.0,11.0,45,0.00,,,0.02,0.00,VWS V14.01,2013-02-17 01:01:00,
2013-02-16 20:06:00,33.7,14.6,29.93,NNW,330,2.0,6.0,45,0.00,,,0.02,0.00,VWS V14.01,2013-02-17 01:06:00,
2013-02-16 20:11:00,33.6,14.5,29.93,NNE,33,4.0,5.0,45,0.00,,,0.02,0.00,VWS V14.01,2013-02-17 01:11:00,
2013-02-16 20:16:00,33.5,14.4,29.93,NNW,342,4.0,4.0,45,0.00,,,0.02,0.00,VWS V14.01,2013-02-17 01:16:00,
2013-02-16 20:21:00,33.4,14.4,29.93,NNE,24,5.0,5.0,45,0.00,,,0.02,0.00,VWS V14.01,2013-02-17 01:21:00,
2013-02-16 20:26:00,33.3,14.3,29.93,NNE,24,3.0,7.0,45,0.00,,,0.02,0.00,VWS V14.01,2013-02-17 01:26:00,
2013-02-16 20:31:00,33.2,14.7,29.93,WNW,290,3.0,6.0,46,0.00,,,0.02,0.00,VWS V14.01,2013-02-17 01:31:00,
2013-02-16 20:36:00,33.1,15.6,29.94,NNE,15,4.0,5.0,48,0.00,,,0.02,0.00,VWS V14.01,2013-02-17 01:36:00,
2013-02-16 20:41:00,33.0,15.5,29.94,NW,314,0.0,1.0,48,0.00,,,0.02,0.00,VWS V14.01,2013-02-17 01:41:00,
2013-02-16 20:46:00,32.9,15.4,29.94,NW,306,1.0,2.0,48,0.00,,,0.02,0.00,VWS V14.01,2013-02-17 01:46:00,
2013-02-16 20:51:00,32.8,15.8,29.94,NW,306,0.0,1.0,49,0.00,,,0.02,0.00,VWS V14.01,2013-02-17 01:51:00,
2013-02-16 20:56:00,32.6,15.6,29.94,NW,323,0.0,2.0,49,0.00,,,0.02,0.00,VWS V14.01,2013-02-17 01:56:00,
2013-02-16 21:01:00,32.5,15.5,29.94,WSW,254,7.0,9.0,49,0.00,,,0.02,0.00,VWS V14.01,2013-02-17 02:01:00,
2013-02-16 21:06:00,32.4,14.9,29.94,NE,43,1.0,4.0,48,0.00,,,0.02,0.00,VWS V14.01,2013-02-17 02:06:00,
2013-02-16 21:11:00,32.3,15.3,29.94,South,190,1.0,2.0,49,0.00,,,0.02,0.00,VWS V14.01,2013-02-17 02:11:00,
2013-02-16 21:16:00,32.3,15.3,29.95,West,273,2.0,7.0,49,0.00,,,0.02,0.00,VWS V14.01,2013-02-17 02:16:00,
2013-02-16 21:21:00,32.2,15.2,29.95,NNW,333,3.0,4.0,49,0.00,,,0.02,0.00,VWS V14.01,2013-02-17 02:21:00,
2013-02-16 21:26:00,32.2,15.2,29.95,WSW,256,2.0,2.0,49,0.00,,,0.02,0.00,VWS V14.01,2013-02-17 02:26:00,
2013-02-16 21:31:00,32.1,15.6,29.95,ENE,71,2.0,4.0,50,0.00,,,0.02,0.00,VWS V14.01,2013-02-17 02:31:00,
2013-02-16 21:36:00,32.0,15.5,29.95,NW,323,2.0,5.0,50,0.00,,,0.02,0.00,VWS V14.01,2013-02-17 02:36:00,
2013-02-16 21:41:00,32.0,15.9,29.95,NNW,340,3.0,6.0,51,0.00,,,0.02,0.00,VWS V14.01,2013-02-17 02:41:00,
2013-02-16 21:46:00,31.9,15.8,29.95,NNE,18,1.0,1.0,51,0.00,,,0.02,0.00,VWS V14.01,2013-02-17 02:46:00,
2013-02-16 21:51:00,31.8,15.8,29.96,NNW,331,2.0,2.0,51,0.00,,,0.02,0.00,VWS V14.01,2013-02-17 02:51:00,
2013-02-16 21:56:00,31.7,16.1,29.96,North,360,3.0,3.0,52,0.00,,,0.02,0.00,VWS V14.01,2013-02-17 02:56:00,
2013-02-16 22:01:00,31.6,16.0,29.96,NNW,337,2.0,3.0,52,0.00,,,0.02,0.00,VWS V14.01,2013-02-17 03:01:00,
2013-02-16 22:06:00,31.5,16.4,29.96,NNE,24,2.0,2.0,53,0.00,,,0.02,0.00,VWS V14.01,2013-02-17 03:06:00,
2013-02-16 22:11:00,31.5,15.9,29.96,NW,326,0.0,2.0,52,0.00,,,0.02,0.00,VWS V14.01,2013-02-17 03:11:00,
2013-02-16 22:16:00,31.4,16.7,29.96,NW,326,1.0,1.0,54,0.00,,,0.02,0.00,VWS V14.01,2013-02-17 03:16:00,
2013-02-16 22:21:00,31.3,16.2,29.96,North,360,1.0,1.0,53,0.00,,,0.02,0.00,VWS V14.01,2013-02-17 03:21:00,
2013-02-16 22:26:00,31.2,16.1,29.96,North,360,2.0,2.0,53,0.00,,,0.02,0.00,VWS V14.01,2013-02-17 03:26:00,
2013-02-16 22:31:00,31.1,16.4,29.97,North,360,0.0,0.0,54,0.00,,,0.02,0.00,VWS V14.01,2013-02-17 03:31:00,
2013-02-16 22:36:00,31.0,16.7,29.97,North,360,0.0,0.0,55,0.00,,,0.02,0.00,VWS V14.01,2013-02-17 03:36:00,
2013-02-16 22:41:00,30.9,17.1,29.97,West,265,0.0,0.0,56,0.00,,,0.02,0.00,VWS V14.01,2013-02-17 03:41:00,
2013-02-16 22:46:00,30.7,16.9,29.96,West,265,0.0,1.0,56,0.00,,,0.02,0.00,VWS V14.01,2013-02-17 03:46:00,
2013-02-16 22:51:00,30.6,16.8,29.96,WNW,294,2.0,2.0,56,0.00,,,0.02,0.00,VWS V14.01,2013-02-17 03:51:00,
2013-02-16 22:56:00,30.6,16.4,29.96,WNW,294,0.0,0.0,55,0.00,,,0.02,0.00,VWS V14.01,2013-02-17 03:56:00,
2013-02-16 23:01:00,30.5,16.7,29.96,WNW,294,0.0,1.0,56,0.00,,,0.02,0.00,VWS V14.01,2013-02-17 04:01:00,
2013-02-16 23:06:00,30.3,16.5,29.97,NW,310,0.0,3.0,56,0.00,,,0.02,0.00,VWS V14.01,2013-02-17 04:06:00,
2013-02-16 23:11:00,30.3,16.9,29.97,NW,310,0.0,1.0,57,0.00,,,0.02,0.00,VWS V14.01,2013-02-17 04:11:00,
2013-02-16 23:16:00,30.2,16.4,29.97,NNW,347,0.0,0.0,56,0.00,,,0.02,0.00,VWS V14.01,2013-02-17 04:16:00,
2013-02-16 23:21:00,30.1,17.1,29.97,NNW,347,0.0,0.0,58,0.00,,,0.02,0.00,VWS V14.01,2013-02-17 04:21:00,
2013-02-16 23:26:00,29.9,16.9,29.97,NNW,347,0.0,0.0,58,0.00,,,0.02,0.00,VWS V14.01,2013-02-17 04:26:00,
2013-02-16 23:31:00,29.8,17.2,29.97,NNW,347,0.0,0.0,59,0.00,,,0.02,0.00,VWS V14.01,2013-02-17 04:31:00,
2013-02-16 23:36:00,29.7,17.5,29.97,West,281,0.0,0.0,60,0.00,,,0.02,0.00,VWS V14.01,2013-02-17 04:36:00,
2013-02-16 23:41:00,29.4,17.2,29.97,NE,36,1.0,1.0,60,0.00,,,0.02,0.00,VWS V14.01,2013-02-17 04:41:00,
2013-02-16 23:46:00,29.3,17.1,29.97,SSW,198,0.0,0.0,60,0.00,,,0.02,0.00,VWS V14.01,2013-02-17 04:46:00,
2013-02-16 23:51:00,29.2,16.7,29.97,NNW,331,0.0,2.0,59,0.00,,,0.02,0.00,VWS V14.01,2013-02-17 04:51:00,
2013-02-16 23:56:00,29.2,16.3,29.97,NE,50,1.0,2.0,58,0.00,,,0.02,0.00,VWS V14.01,2013-02-17 04:56:00,